Time;durP1;ratioP1;P1;durP2;ratioP2;P2;SDS_P1;SDS_P2;PMS_P1;PMS_P2;Temp;Humidity;BMP_temperature;BMP_pressure;BME280_temperature;BME280_humidity;BME280_pressure;Samples;Min_cycle;Max_cycle;Signal;HPM_P1;HPM_P2
2022/01/07 00:00:48;;;;;;;418.05;303.33;;;;;;;23.44;40.11;101643.72;5124370;27;20467;-43
2022/01/07 00:03:22;;;;;;;413.17;304.15;;;;;;;23.41;39.92;101643.69;5124051;27;20083;-44
2022/01/07 00:05:51;;;;;;;418.40;306.88;;;;;;;23.41;40.14;101636.69;5123773;27;20476;-43
2022/01/07 00:08:20;;;;;;;417.90;303.00;;;;;;;23.42;40.10;101627.09;5124108;28;20035;-44
2022/01/07 00:10:48;;;;;;;419.60;306.45;;;;;;;23.40;39.83;101618.34;5124027;28;20386;-43
2022/01/07 00:13:17;;;;;;;418.65;309.13;;;;;;;23.41;39.94;101613.13;5124573;28;20176;-43
2022/01/07 00:15:46;;;;;;;419.38;313.75;;;;;;;23.29;39.81;101597.97;5124736;28;20027;-43
2022/01/07 00:18:15;;;;;;;417.02;304.15;;;;;;;23.40;40.14;101621.81;5124310;28;20037;-43
2022/01/07 00:20:43;;;;;;;417.05;310.25;;;;;;;23.40;39.88;101620.97;5124072;28;20027;-43
2022/01/07 00:23:12;;;;;;;415.75;307.65;;;;;;;23.34;39.70;101619.03;5123358;28;20496;-43
2022/01/07 00:25:41;;;;;;;422.48;312.42;;;;;;;23.36;40.01;101617.34;5123981;28;20067;-43
2022/01/07 00:28:09;;;;;;;411.88;305.17;;;;;;;23.33;39.99;101614.69;5124202;28;20056;-42
2022/01/07 00:30:38;;;;;;;408.30;303.75;;;;;;;23.32;39.85;101618.13;5124051;28;20073;-43
2022/01/07 00:33:07;;;;;;;415.27;307.80;;;;;;;23.34;40.01;101612.09;5124369;28;20057;-43
2022/01/07 00:35:36;;;;;;;411.88;305.50;;;;;;;23.34;39.83;101611.19;5123885;28;20031;-44
2022/01/07 00:38:05;;;;;;;413.70;306.00;;;;;;;23.16;39.88;101595.84;5123865;28;20057;-42
2022/01/07 00:40:34;;;;;;;419.70;312.65;;;;;;;23.36;39.79;101625.19;5123732;28;20038;-43
2022/01/07 00:43:03;;;;;;;417.23;310.23;;;;;;;23.30;39.98;101625.94;5123374;28;20110;-44
2022/01/07 00:45:30;;;;;;;425.52;310.15;;;;;;;23.32;40.18;101632.09;5123170;28;20034;-43
2022/01/07 00:47:59;;;;;;;422.80;314.75;;;;;;;23.28;40.04;101630.22;5123888;28;20058;-41
2022/01/07 00:50:29;;;;;;;424.70;316.13;;;;;;;23.29;40.30;101634.63;5123487;28;20073;-42
2022/01/07 00:52:58;;;;;;;417.92;308.63;;;;;;;23.32;40.24;101646.94;5088912;28;20055;-42
2022/01/07 00:55:26;;;;;;;422.83;316.40;;;;;;;23.30;40.27;101639.03;5105311;28;20031;-42
2022/01/07 00:57:56;;;;;;;422.75;314.52;;;;;;;23.34;39.83;101640.88;5123632;28;20046;-42
2022/01/07 01:00:26;;;;;;;413.27;304.75;;;;;;;23.31;40.21;101639.94;5123386;28;20560;-43
2022/01/07 01:02:56;;;;;;;427.52;313.35;;;;;;;23.30;40.07;101639.03;5123363;28;20058;-47
2022/01/07 01:05:25;;;;;;;429.35;317.23;;;;;;;23.31;40.06;101637.31;5125116;27;20110;-44
2022/01/07 01:07:53;;;;;;;427.38;318.60;;;;;;;23.22;40.44;101632.72;5127231;27;20023;-43
2022/01/07 01:10:25;;;;;;;427.42;316.23;;;;;;;23.27;39.88;101638.06;5127171;27;20035;-43
2022/01/07 01:12:54;;;;;;;431.13;315.67;;;;;;;23.25;40.16;101632.78;5126988;27;20030;-43
2022/01/07 01:15:24;;;;;;;424.15;314.60;;;;;;;;;;5127681;27;20065;-43
2022/01/07 01:17:53;;;;;;;421.58;317.08;;;;;;;23.29;40.14;101646.84;5127373;27;20058;-43
2022/01/07 01:20:21;;;;;;;411.10;300.77;;;;;;;23.26;40.13;101649.38;5091454;27;20065;-43
2022/01/07 01:22:50;;;;;;;404.70;300.08;;;;;;;23.26;40.10;101654.63;5127122;27;20031;-43
2022/01/07 01:25:19;;;;;;;410.58;298.17;;;;;;;23.27;39.91;101652.03;5127451;27;20064;-43
2022/01/07 01:27:47;;;;;;;404.35;298.08;;;;;;;23.26;40.13;101652.00;5127453;27;20038;-42
2022/01/07 01:30:17;;;;;;;409.83;295.73;;;;;;;23.23;40.31;101655.44;5127402;27;20035;-43
2022/01/07 01:32:48;;;;;;;405.27;296.52;;;;;;;23.24;40.10;101648.44;5127585;27;20047;-43
2022/01/07 01:35:17;;;;;;;406.85;295.83;;;;;;;23.21;40.33;101642.28;5127380;27;20296;-43
2022/01/07 01:37:45;;;;;;;415.27;298.73;;;;;;;23.19;40.06;101643.06;5108603;27;20027;-43
2022/01/07 01:40:16;;;;;;;414.10;301.55;;;;;;;23.19;40.30;101645.69;5127306;27;20055;-43
2022/01/07 01:42:45;;;;;;;412.67;299.23;;;;;;;23.20;39.97;101643.13;5127035;27;20467;-44
2022/01/07 01:45:15;;;;;;;399.88;290.60;;;;;;;23.17;40.38;101644.75;5091659;27;20383;-43
2022/01/07 01:47:45;;;;;;;406.20;298.35;;;;;;;23.21;39.88;101644.91;5127085;27;20023;-43
2022/01/07 01:50:14;;;;;;;401.83;296.08;;;;;;;23.17;40.38;101635.16;5126768;27;20472;-42
2022/01/07 01:52:46;;;;;;;407.48;299.35;;;;;;;23.18;40.45;101639.53;5126272;27;20023;-42
2022/01/07 01:55:17;;;;;;;410.92;298.70;;;;;;;23.17;40.45;101643.00;5126981;27;20110;-42
2022/01/07 01:57:46;;;;;;;412.83;299.45;;;;;;;23.18;40.23;101638.66;5126790;27;20373;-43
2022/01/07 02:00:15;;;;;;;414.33;302.65;;;;;;;23.14;40.50;101639.44;5126796;27;20484;-43
2022/01/07 02:02:44;;;;;;;418.02;300.83;;;;;;;23.15;40.19;101644.72;5125385;27;20091;-42
2022/01/07 02:05:13;;;;;;;403.30;294.35;;;;;;;23.12;40.42;101644.63;5126744;27;20108;-43
2022/01/07 02:07:42;;;;;;;404.17;300.15;;;;;;;23.14;40.18;101639.44;5126818;27;20050;-42
2022/01/07 02:10:13;;;;;;;411.33;304.52;;;;;;;23.16;40.28;101648.22;5126493;27;20035;-43
2022/01/07 02:12:42;;;;;;;410.20;303.98;;;;;;;23.10;40.27;101637.56;5126237;27;20388;-43
2022/01/07 02:15:12;;;;;;;425.23;309.67;;;;;;;23.14;40.21;101655.13;5125354;27;20450;-43
2022/01/07 02:17:43;;;;;;;411.75;307.10;;;;;;;23.14;40.49;101656.03;5125180;27;20031;-42
2022/01/07 02:20:13;;;;;;;413.30;302.92;;;;;;;23.14;40.24;101655.13;5125996;27;20054;-43
2022/01/07 02:22:42;;;;;;;410.17;300.23;;;;;;;23.15;40.42;101662.13;5126381;27;20043;-43
2022/01/07 02:25:11;;;;;;;427.13;309.25;;;;;;;23.12;40.25;101657.72;5126379;27;20034;-49
2022/01/07 02:27:42;;;;;;;413.63;306.88;;;;;;;23.14;40.84;101652.50;5126173;27;20027;-43
2022/01/07 02:30:14;;;;;;;414.92;307.13;;;;;;;23.08;40.73;101653.22;5126096;27;20161;-43
2022/01/07 02:32:42;;;;;;;422.80;306.83;;;;;;;23.12;40.11;101651.56;5125546;27;20031;-43
2022/01/07 02:35:11;;;;;;;408.75;301.00;;;;;;;23.14;40.41;101660.34;5125808;27;20060;-43
2022/01/07 02:37:40;;;;;;;421.50;308.08;;;;;;;23.11;40.58;101650.69;5125550;27;20027;-43
2022/01/07 02:40:09;;;;;;;409.08;301.73;;;;;;;23.13;40.47;101651.63;5107774;27;20027;-43
2022/01/07 02:42:38;;;;;;;418.67;308.65;;;;;;;23.07;40.61;101648.84;5125930;27;20366;-47
2022/01/07 02:45:09;;;;;;;405.13;302.70;;;;;;;23.06;40.56;101647.06;5125703;27;20472;-47
2022/01/07 02:47:52;;;;;;;418.67;305.45;;;;;;;23.08;40.68;101647.13;5125301;27;20403;-43
2022/01/07 02:50:23;;;;;;;420.63;306.52;;;;;;;23.16;40.61;101654.34;5125439;27;20035;-43
2022/01/07 02:52:52;;;;;;;412.35;312.08;;;;;;;23.08;40.44;101650.63;5125390;27;20027;-42
2022/01/07 02:55:21;;;;;;;416.35;305.92;;;;;;;23.04;40.30;101654.88;5125516;27;20027;-42
2022/01/07 02:57:50;;;;;;;409.05;301.17;;;;;;;23.04;40.51;101638.28;5125737;27;20369;-43
2022/01/07 03:00:20;;;;;;;425.25;306.80;;;;;;;23.08;40.58;101642.75;5107192;27;20023;-42
2022/01/07 03:02:49;;;;;;;421.00;303.95;;;;;;;23.06;40.53;101649.69;5125169;27;20449;-43
2022/01/07 03:05:18;;;;;;;418.08;308.15;;;;;;;23.04;40.51;101651.38;5125773;27;20023;-43
2022/01/07 03:07:48;;;;;;;428.90;311.02;;;;;;;23.05;40.42;101637.44;5125263;27;20027;-44
2022/01/07 03:10:19;;;;;;;428.05;312.38;;;;;;;23.02;40.72;101639.97;5125250;27;20183;-43
2022/01/07 03:12:47;;;;;;;414.75;310.73;;;;;;;23.01;40.61;101646.94;5125554;27;20576;-43
2022/01/07 03:15:17;;;;;;;422.52;311.40;;;;;;;23.00;40.89;101653.03;5125513;27;20031;-42
2022/01/07 03:17:45;;;;;;;432.02;316.77;;;;;;;23.03;40.66;101660.06;5125319;27;20125;-43
2022/01/07 03:20:16;;;;;;;417.17;312.10;;;;;;;22.99;40.95;101663.47;5125174;27;20463;-43
2022/01/07 03:22:45;;;;;;;422.50;309.67;;;;;;;23.00;40.58;101655.63;5124151;27;20031;-43
2022/01/07 03:25:15;;;;;;;430.77;310.55;;;;;;;22.99;40.97;101659.09;5125326;27;20023;-43
2022/01/07 03:27:44;;;;;;;421.23;314.30;;;;;;;22.97;40.76;101652.94;5124538;27;20046;-43
2022/01/07 03:30:14;;;;;;;419.55;312.90;;;;;;;23.00;40.83;101655.63;5124693;27;20182;-43
2022/01/07 03:32:43;;;;;;;425.92;314.60;;;;;;;23.02;40.65;101650.44;5124869;27;20115;-43
2022/01/07 03:35:12;;;;;;;428.55;313.90;;;;;;;22.96;40.95;101650.28;5125100;27;20031;-43
2022/01/07 03:37:42;;;;;;;419.48;308.20;;;;;;;23.00;40.64;101636.44;5124730;27;20086;-42
2022/01/07 03:40:12;;;;;;;427.13;315.23;;;;;;;23.03;40.79;101649.59;5124511;27;20075;-43
2022/01/07 03:42:42;;;;;;;426.60;316.35;;;;;;;23.08;40.66;101645.38;5124356;27;20111;-42
2022/01/07 03:45:10;;;;;;;429.98;316.75;;;;;;;23.03;40.82;101650.50;5124895;27;20042;-43
2022/01/07 03:47:39;;;;;;;436.45;323.48;;;;;;;23.02;40.62;101650.44;5106599;27;20031;-43
2022/01/07 03:50:10;;;;;;;433.65;320.58;;;;;;;23.01;40.87;101649.56;5124635;27;20110;-42
2022/01/07 03:52:38;;;;;;;430.80;319.27;;;;;;;23.02;40.93;101650.44;5106605;27;20040;-42
2022/01/07 03:55:10;;;;;;;428.08;320.92;;;;;;;22.95;40.54;101658.97;5124710;27;20515;-42
2022/01/07 03:57:39;;;;;;;430.45;314.15;;;;;;;22.98;40.78;101659.06;5106718;27;20051;-43
2022/01/07 04:00:11;;;;;;;425.88;310.45;;;;;;;23.00;40.47;101646.91;5124801;27;20062;-44
2022/01/07 04:02:40;;;;;;;428.63;316.02;;;;;;;23.01;40.50;101638.19;5124471;27;20444;-42
2022/01/07 04:05:09;;;;;;;426.55;312.95;;;;;;;22.99;40.72;101646.00;5124605;27;20035;-42
2022/01/07 04:07:37;;;;;;;426.90;317.45;;;;;;;22.95;40.85;101649.38;5124566;27;20023;-42
2022/01/07 04:10:06;;;;;;;426.10;316.38;;;;;;;22.98;41.06;101653.84;5124276;28;20023;-42
2022/01/07 04:12:34;;;;;;;426.08;316.02;;;;;;;22.92;40.70;101663.28;5123897;28;20054;-43
2022/01/07 04:15:12;;;;;;;435.67;319.88;;;;;;;22.97;40.94;101662.53;5124220;28;20034;-43
2022/01/07 04:17:43;;;;;;;427.23;318.23;;;;;;;22.98;40.60;101661.69;5124345;28;20480;-42
2022/01/07 04:20:14;;;;;;;427.00;315.30;;;;;;;22.96;40.76;101655.50;5124220;28;20068;-42
2022/01/07 04:22:42;;;;;;;420.10;312.13;;;;;;;22.96;40.86;101668.59;5124002;28;20060;-42
2022/01/07 04:25:16;;;;;;;420.77;306.48;;;;;;;22.94;40.63;101665.03;5124322;28;20337;-42
2022/01/07 04:27:46;;;;;;;434.42;317.42;;;;;;;22.93;40.72;101666.75;5124717;28;20029;-43
2022/01/07 04:30:15;;;;;;;418.10;313.77;;;;;;;22.95;40.60;101662.47;5124358;28;20076;-43
2022/01/07 04:32:44;;;;;;;424.05;309.15;;;;;;;22.91;40.93;101661.50;5123901;28;20080;-42
2022/01/07 04:35:14;;;;;;;427.77;309.60;;;;;;;22.92;40.98;101658.03;5088689;28;20023;-43
2022/01/07 04:37:42;;;;;;;432.50;317.30;;;;;;;22.95;40.90;101656.34;5123755;28;20373;-42
2022/01/07 04:40:13;;;;;;;422.73;310.80;;;;;;;22.93;40.67;101661.53;5126690;27;20136;-42
2022/01/07 04:42:42;;;;;;;428.52;312.00;;;;;;;22.90;40.60;101659.72;5127629;27;20396;-45
2022/01/07 04:45:11;;;;;;;431.02;315.75;;;;;;;22.89;40.93;101670.16;5126921;27;20957;-45
2022/01/07 04:47:40;;;;;;;424.38;312.42;;;;;;;22.94;40.70;101663.31;5127226;27;20032;-42
2022/01/07 04:50:12;;;;;;;426.20;314.13;;;;;;;22.91;41.00;101669.34;5128183;27;20038;-46
2022/01/07 04:52:44;;;;;;;419.58;308.48;;;;;;;22.87;40.94;101664.84;5127992;27;20035;-44
2022/01/07 04:55:15;;;;;;;423.55;312.98;;;;;;;22.84;40.74;101671.75;5127723;27;20028;-42
2022/01/07 04:57:45;;;;;;;417.67;313.98;;;;;;;22.89;40.67;101672.78;5128023;27;20038;-42
2022/01/07 05:00:16;;;;;;;422.23;308.17;;;;;;;22.92;40.63;101665.88;5109606;27;20113;-44
2022/01/07 05:02:45;;;;;;;425.33;309.35;;;;;;;22.93;40.47;101674.59;5127343;27;20055;-43
2022/01/07 05:05:14;;;;;;;427.10;313.63;;;;;;;22.89;40.71;101673.66;5127327;27;20023;-44
2022/01/07 05:07:43;;;;;;;432.50;312.23;;;;;;;22.86;40.63;101660.47;5127647;27;20026;-44
2022/01/07 05:10:13;;;;;;;422.40;310.65;;;;;;;22.87;41.00;101666.59;5127465;27;20872;-47
2022/01/07 05:12:42;;;;;;;427.52;319.77;;;;;;;22.87;40.88;101675.31;5127291;27;20045;-42
2022/01/07 05:15:12;;;;;;;425.92;318.35;;;;;;;22.82;40.91;101686.50;5127518;27;20039;-45
2022/01/07 05:17:41;;;;;;;426.20;313.35;;;;;;;22.86;41.13;101691.00;5109493;27;20062;-43
2022/01/07 05:20:10;;;;;;;419.63;314.85;;;;;;;22.81;40.95;101714.41;5108831;27;20277;-42
2022/01/07 05:22:39;;;;;;;422.55;310.30;;;;;;;22.85;40.89;101726.72;5127352;27;20031;-42
2022/01/07 05:25:08;;;;;;;411.33;297.85;;;;;;;22.82;40.57;101730.97;5127765;27;20023;-42
2022/01/07 05:27:37;;;;;;;419.73;303.20;;;;;;;22.83;40.91;101717.97;5127748;27;20588;-43
2022/01/07 05:30:08;;;;;;;403.60;287.55;;;;;;;22.77;40.86;101712.53;5127497;27;20031;-46
2022/01/07 05:32:37;;;;;;;415.48;299.48;;;;;;;22.85;40.86;101739.78;5127626;27;20092;-42
2022/01/07 05:35:06;;;;;;;398.80;289.48;;;;;;;22.81;40.93;101734.44;5127320;27;20038;-44
2022/01/07 05:37:35;;;;;;;396.38;282.52;;;;;;;22.76;40.95;101743.00;5126536;27;20536;-47
2022/01/07 05:40:05;;;;;;;402.48;288.38;;;;;;;22.76;40.99;101755.22;5126854;27;20107;-43
2022/01/07 05:42:33;;;;;;;400.42;289.05;;;;;;;22.75;40.66;101756.94;5127067;27;20483;-43
2022/01/07 05:45:02;;;;;;;403.20;281.42;;;;;;;22.75;40.98;101733.38;5126992;27;20039;-43
2022/01/07 05:47:32;;;;;;;394.98;281.70;;;;;;;22.83;40.47;101727.50;5127024;27;20031;-43
2022/01/07 05:50:00;;;;;;;403.42;285.17;;;;;;;22.84;40.31;101729.28;5126915;27;20027;-43
2022/01/07 05:52:28;;;;;;;402.02;290.98;;;;;;;22.80;40.79;101737.88;5126095;27;20136;-43
2022/01/07 05:54:57;;;;;;;392.40;290.02;;;;;;;22.77;40.39;101744.78;5127044;27;20112;-44
2022/01/07 05:57:27;;;;;;;405.48;293.15;;;;;;;22.82;40.82;101750.19;5126546;27;20023;-43
2022/01/07 05:59:56;;;;;;;397.02;286.52;;;;;;;22.83;40.51;101758.91;5126668;27;20084;-43
2022/01/07 06:02:24;;;;;;;402.70;290.75;;;;;;;22.86;40.68;101759.00;5126529;27;20054;-43
2022/01/07 06:04:54;;;;;;;400.45;292.92;;;;;;;22.84;40.54;101769.41;5126491;27;20050;-43
2022/01/07 06:07:23;;;;;;;399.10;286.73;;;;;;;22.82;40.76;101781.59;5126540;27;20031;-43
2022/01/07 06:09:51;;;;;;;415.33;293.17;;;;;;;22.83;40.64;101751.97;5126567;27;20030;-42
2022/01/07 06:12:20;;;;;;;404.33;291.95;;;;;;;22.83;40.89;101765.03;5126775;27;20429;-43
2022/01/07 06:14:48;;;;;;;407.52;297.60;;;;;;;22.86;40.85;101748.53;5126775;27;20099;-44
2022/01/07 06:17:16;;;;;;;417.05;300.27;;;;;;;22.87;40.96;101755.56;5126384;27;20039;-43
2022/01/07 06:19:44;;;;;;;409.05;296.05;;;;;;;22.91;40.77;101758.31;5126285;27;20034;-44
2022/01/07 06:22:13;;;;;;;414.70;299.80;;;;;;;22.92;40.82;101752.22;5126166;27;20054;-43
2022/01/07 06:24:40;;;;;;;414.15;299.38;;;;;;;22.93;40.90;101753.09;5126491;27;20031;-43
2022/01/07 06:27:09;;;;;;;423.17;299.35;;;;;;;22.92;40.64;101757.47;5126392;27;20019;-43
2022/01/07 06:29:38;;;;;;;412.60;301.63;;;;;;;22.91;40.99;101760.91;5126559;27;20034;-43
2022/01/07 06:32:07;;;;;;;415.65;297.23;;;;;;;22.96;40.96;101763.66;5126260;27;20031;-46
2022/01/07 06:34:36;;;;;;;414.85;302.98;;;;;;;22.90;40.78;101769.59;5126157;27;20476;-44
2022/01/07 06:37:05;;;;;;;405.60;297.92;;;;;;;22.96;40.52;101770.63;5125980;27;20027;-46
2022/01/07 06:39:34;;;;;;;413.92;299.38;;;;;;;22.95;40.58;101774.09;5125395;27;20157;-44
2022/01/07 06:42:03;;;;;;;413.33;295.10;;;;;;;22.99;40.89;101783.81;5125541;27;20114;-47
2022/01/07 06:44:32;;;;;;;414.83;298.33;;;;;;;23.01;40.77;101779.50;5125928;27;20059;-47
2022/01/07 06:47:00;;;;;;;418.27;300.50;;;;;;;22.97;40.81;101777.66;5125716;27;20084;-43
2022/01/07 06:49:29;;;;;;;410.25;299.25;;;;;;;22.98;40.57;101780.31;5125908;27;20027;-42
2022/01/07 06:51:58;;;;;;;413.95;295.88;;;;;;;22.97;40.95;101761.94;5125959;27;20027;-42
2022/01/07 06:54:27;;;;;;;407.85;294.02;;;;;;;23.00;40.82;101757.69;5125727;27;20488;-42
2022/01/07 06:56:56;;;;;;;405.83;295.70;;;;;;;22.96;40.64;101747.09;5124965;27;20071;-46
2022/01/07 06:59:24;;;;;;;412.55;301.77;;;;;;;23.02;40.50;101770.81;5107329;27;20756;-42
2022/01/07 07:01:53;;;;;;;411.38;300.52;;;;;;;23.04;40.68;101782.22;5125504;27;20063;-43
2022/01/07 07:04:22;;;;;;;405.80;294.58;;;;;;;23.03;40.45;101764.72;5124897;27;20057;-43
2022/01/07 07:06:50;;;;;;;409.17;292.23;;;;;;;22.96;40.49;101757.56;5125513;27;20063;-42
2022/01/07 07:09:19;;;;;;;406.85;293.05;;;;;;;23.05;40.27;101776.13;5125229;27;20368;-43
2022/01/07 07:11:48;;;;;;;416.95;294.88;;;;;;;23.06;40.39;101777.91;5124657;27;20414;-42
2022/01/07 07:14:17;;;;;;;409.10;293.52;;;;;;;23.03;40.76;101786.56;5124701;27;20165;-42
2022/01/07 07:16:45;;;;;;;410.23;295.08;;;;;;;23.01;40.84;101785.63;5124626;27;20042;-42
2022/01/07 07:19:14;;;;;;;412.55;295.17;;;;;;;23.01;40.47;101785.63;5124542;27;20031;-43
2022/01/07 07:21:43;;;;;;;406.23;296.67;;;;;;;23.01;40.50;101789.97;5124777;27;20055;-43
2022/01/07 07:24:11;;;;;;;412.40;291.90;;;;;;;23.01;40.52;101788.25;5124830;27;20979;-46
2022/01/07 07:26:39;;;;;;;403.38;289.13;;;;;;;23.04;40.84;101796.19;5125194;27;20029;-42
2022/01/07 07:29:08;;;;;;;413.02;297.83;;;;;;;23.02;40.94;101807.44;5124803;27;20027;-49
2022/01/07 07:31:39;;;;;;;404.40;294.05;;;;;;;23.03;40.79;101812.75;5089266;27;20026;-49
2022/01/07 07:36:45;;;;;;;408.85;297.42;;;;;;;23.06;40.58;101820.69;5125048;27;20464;-42
2022/01/07 07:39:15;;;;;;;405.70;295.45;;;;;;;23.08;40.84;101823.34;5124601;27;20442;-44
2022/01/07 07:41:43;;;;;;;402.55;295.35;;;;;;;23.05;40.77;101833.72;5106157;27;20548;-46
2022/01/07 07:44:12;;;;;;;410.17;298.15;;;;;;;23.08;40.48;101835.56;5124843;27;20031;-44
2022/01/07 07:46:40;;;;;;;407.23;293.45;;;;;;;23.08;40.46;101828.56;5124998;27;20504;-44
2022/01/07 07:49:10;;;;;;;414.90;299.77;;;;;;;23.08;40.36;101823.34;5124687;27;20114;-43
2022/01/07 07:51:38;;;;;;;411.50;300.35;;;;;;;23.05;40.86;101810.16;5124160;27;20031;-44
2022/01/07 07:54:07;;;;;;;408.63;296.58;;;;;;;23.10;40.78;101790.25;5125012;27;20035;-43
2022/01/07 07:56:36;;;;;;;419.92;301.90;;;;;;;23.11;40.91;101791.13;5124872;27;20541;-44
2022/01/07 07:59:05;;;;;;;414.35;295.67;;;;;;;23.04;40.65;101777.88;5124664;27;20027;-49
2022/01/07 08:01:33;;;;;;;418.48;298.85;;;;;;;23.05;40.88;101786.59;5124265;27;20077;-47
2022/01/07 08:04:03;;;;;;;419.05;303.15;;;;;;;23.07;40.56;101784.94;5123819;27;20124;-48
2022/01/07 08:06:32;;;;;;;411.63;296.10;;;;;;;23.07;40.91;101784.94;5123895;27;20023;-44
2022/01/07 08:09:02;;;;;;;411.17;297.13;;;;;;;23.12;40.63;101757.16;5124383;27;20130;-50
2022/01/07 08:11:37;;;;;;;415.48;302.60;;;;;;;23.11;40.74;101747.53;5124783;28;20200;-46
2022/01/07 08:16:54;;;;;;;423.60;306.73;;;;;;;23.15;40.73;101793.00;5111444;28;20050;-45
2022/01/07 08:19:22;;;;;;;434.40;303.38;;;;;;;23.14;41.03;101812.16;5124312;28;20194;-44
2022/01/07 08:21:51;;;;;;;419.80;303.63;;;;;;;23.12;41.04;101816.47;5123714;28;20489;-44
2022/01/07 08:24:20;;;;;;;410.33;299.90;;;;;;;23.13;40.69;101806.06;5105767;28;20279;-44
2022/01/07 08:26:49;;;;;;;409.35;293.27;;;;;;;23.11;41.06;101801.59;5124219;28;20037;-44
2022/01/07 08:29:19;;;;;;;410.75;298.50;;;;;;;23.18;40.59;101814.03;5124332;28;20109;-43
2022/01/07 08:34:57;;;;;;;420.90;298.92;;;;;;;23.19;40.85;101816.69;5124476;28;20109;-43
2022/01/07 08:37:04;;;;;;;415.60;302.27;;;;;;;23.20;40.63;101814.97;5114839;28;20035;-42
2022/01/07 08:39:32;;;;;;;418.98;292.15;;;;;;;23.19;40.60;101818.44;5123962;28;20033;-42
2022/01/07 08:42:01;;;;;;;410.23;296.75;;;;;;;23.19;40.58;101827.16;5124342;28;20492;-42
2022/01/07 08:44:30;;;;;;;417.50;296.98;;;;;;;23.19;40.94;101828.91;5124048;28;20102;-44
2022/01/07 08:46:58;;;;;;;412.25;293.85;;;;;;;23.19;40.97;101835.00;5124185;28;20065;-43
2022/01/07 08:49:26;;;;;;;405.23;292.92;;;;;;;23.26;40.95;101832.63;5123753;28;20130;-47
2022/01/07 08:51:54;;;;;;;411.95;294.60;;;;;;;23.23;40.87;101829.91;5124202;28;20023;-50
2022/01/07 08:54:23;;;;;;;412.80;291.13;;;;;;;23.21;40.77;101827.25;5124261;28;20042;-44
2022/01/07 08:56:51;;;;;;;406.63;291.27;;;;;;;23.22;40.86;101826.41;5124073;28;20031;-43
2022/01/07 08:59:20;;;;;;;410.33;288.75;;;;;;;23.24;40.57;101813.38;5105535;28;20031;-49
2022/01/07 09:01:48;;;;;;;407.15;290.85;;;;;;;23.26;40.66;101830.00;5123391;28;20448;-43
2022/01/07 09:04:17;;;;;;;410.52;291.83;;;;;;;23.23;40.95;101843.00;5123749;28;20046;-43
2022/01/07 09:06:45;;;;;;;408.23;289.15;;;;;;;23.24;40.70;101836.91;5124085;28;20019;-43
2022/01/07 09:09:13;;;;;;;400.13;284.88;;;;;;;23.25;40.92;101844.81;5124101;28;20480;-45
2022/01/07 09:11:42;;;;;;;405.42;293.70;;;;;;;23.30;40.77;101853.69;5123787;28;20059;-43
2022/01/07 09:14:10;;;;;;;402.23;283.52;;;;;;;23.22;40.74;101857.84;5123645;28;20072;-43
2022/01/07 09:16:38;;;;;;;406.08;285.45;;;;;;;23.27;40.90;101865.81;5123689;28;20031;-43
2022/01/07 09:19:05;;;;;;;405.50;286.42;;;;;;;23.29;40.94;101870.25;5113033;28;20802;-43
2022/01/07 09:21:33;;;;;;;414.58;291.65;;;;;;;23.34;40.64;101881.75;5107151;28;20039;-43
2022/01/07 09:24:00;;;;;;;401.65;285.20;;;;;;;23.31;40.68;101883.41;5106279;28;20042;-44
2022/01/07 09:26:27;;;;;;;410.17;288.00;;;;;;;23.32;40.58;101888.66;5107940;27;20073;-43
2022/01/07 09:28:55;;;;;;;395.63;281.20;;;;;;;23.33;40.44;101892.19;5109911;27;20049;-44
2022/01/07 09:31:23;;;;;;;412.50;287.33;;;;;;;23.34;40.87;101878.22;5109884;27;20031;-47
2022/01/07 09:33:51;;;;;;;413.98;293.55;;;;;;;23.35;40.52;101880.91;5109407;27;20055;-44
2022/01/07 09:36:19;;;;;;;415.92;288.77;;;;;;;23.39;40.78;101870.53;5109946;27;20399;-43
2022/01/07 09:38:47;;;;;;;397.38;276.77;;;;;;;23.35;40.59;101869.53;5108953;27;20143;-44
2022/01/07 09:41:16;;;;;;;397.92;270.58;;;;;;;23.38;40.25;101880.09;5109822;27;20030;-42
2022/01/07 09:43:45;;;;;;;375.70;266.42;;;;;;;23.35;40.48;101883.53;5108782;27;20050;-42
2022/01/07 09:46:15;;;;;;;374.05;261.20;;;;;;;23.34;40.17;101878.22;5090092;27;20043;-44
2022/01/07 09:48:42;;;;;;;382.55;263.58;;;;;;;23.39;40.05;101881.88;5108014;27;20035;-43
2022/01/07 09:51:11;;;;;;;379.70;263.25;;;;;;;23.40;40.50;101883.66;5109074;27;20500;-43
2022/01/07 09:53:38;;;;;;;394.27;272.52;;;;;;;23.43;40.24;101877.63;5090750;27;20104;-43
2022/01/07 09:56:05;;;;;;;378.58;261.52;;;;;;;23.42;40.09;101876.75;5109322;27;20495;-43
2022/01/07 09:58:34;;;;;;;398.67;272.48;;;;;;;23.40;40.27;101882.78;5108784;27;20813;-43
2022/01/07 10:01:04;;;;;;;371.30;261.98;;;;;;;23.43;40.29;101875.00;5108611;27;20324;-43
2022/01/07 10:03:42;;;;;;;374.23;258.10;;;;;;;23.39;40.37;101868.78;5107873;27;20060;-43
2022/01/07 10:06:29;;;;;;;355.27;243.43;;;;;;;23.44;40.00;101874.16;5108825;27;20038;-43
2022/01/07 10:09:05;;;;;;;369.52;254.18;;;;;;;23.42;40.34;101881.97;5108223;27;20041;-43
2022/01/07 10:11:33;;;;;;;358.88;247.02;;;;;;;23.44;40.39;101901.25;5109022;27;20031;-43
2022/01/07 10:14:21;;;;;;;355.33;236.52;;;;;;;23.45;40.08;101917.84;5108683;27;20071;-43
2022/01/07 10:16:53;;;;;;;348.50;235.93;;;;;;;23.46;39.81;101906.53;5087323;27;20377;-44
2022/01/07 10:19:41;;;;;;;358.88;247.73;;;;;;;23.50;40.10;101908.41;5108663;27;20472;-43
2022/01/07 10:22:11;;;;;;;363.35;244.23;;;;;;;23.48;39.80;101915.31;5109140;27;20047;-43
2022/01/07 10:25:00;;;;;;;366.23;248.43;;;;;;;23.51;40.10;101923.28;5107613;27;20028;-43
2022/01/07 10:27:39;;;;;;;334.23;228.30;;;;;;;23.50;39.72;101940.69;5107209;27;20043;-43
2022/01/07 10:30:12;;;;;;;339.75;236.57;;;;;;;23.50;39.69;101932.84;5109237;27;20027;-43
2022/01/07 10:32:40;;;;;;;311.75;213.45;;;;;;;23.40;39.68;101922.94;5108780;27;20046;-43
2022/01/07 10:35:13;;;;;;;320.73;217.55;;;;;;;23.48;39.57;101912.69;5108716;27;20469;-43
2022/01/07 10:37:57;;;;;;;303.05;211.25;;;;;;;23.45;39.74;101900.41;5107644;27;20031;-44
2022/01/07 10:40:44;;;;;;;302.50;208.05;;;;;;;23.55;39.44;101930.38;5090162;27;20024;-47
2022/01/07 10:43:16;;;;;;;289.05;193.85;;;;;;;23.52;39.52;101953.84;5107819;27;20047;-44
2022/01/07 10:45:48;;;;;;;279.02;190.40;;;;;;;23.52;39.46;101948.63;5089939;27;20031;-43
2022/01/07 10:48:16;;;;;;;268.70;186.38;;;;;;;23.59;39.12;101928.75;5106766;27;20509;-43
2022/01/07 10:50:48;;;;;;;266.27;178.10;;;;;;;23.54;39.34;101943.41;5108767;27;20042;-43
2022/01/07 10:53:18;;;;;;;261.85;174.10;;;;;;;23.51;39.30;101946.84;5108254;27;20031;-43
2022/01/07 10:56:06;;;;;;;229.77;157.20;;;;;;;23.52;38.86;101941.63;5108214;27;20798;-43
2022/01/07 10:58:55;;;;;;;227.07;152.07;;;;;;;23.51;38.96;101950.34;5087977;27;20049;-43
2022/01/07 11:01:27;;;;;;;215.88;146.10;;;;;;;23.55;39.04;101945.19;5099544;27;21127;-43
2022/01/07 11:03:58;;;;;;;222.18;148.75;;;;;;;23.55;38.97;101939.97;5089547;27;20035;-43
2022/01/07 11:06:28;;;;;;;207.68;142.55;;;;;;;23.52;38.80;101940.75;5108266;27;20492;-45
2022/01/07 11:08:57;;;;;;;221.80;141.90;;;;;;;23.55;38.70;101945.19;5106997;27;20027;-44
2022/01/07 11:11:31;;;;;;;195.07;134.05;;;;;;;23.49;39.10;101948.53;5109005;27;20503;-46
2022/01/07 11:14:06;;;;;;;194.77;133.05;;;;;;;23.50;38.63;101939.81;5108678;27;20534;-43